createdAt,value
2019-04-26T00:01:35.347Z,2.20
2019-04-26T00:04:16.211Z,2.10
2019-04-26T00:06:47.263Z,2.20
2019-04-26T00:09:50.001Z,2.17
2019-04-26T00:12:34.375Z,2.05
2019-04-26T00:15:33.632Z,2.30
2019-04-26T00:18:04.482Z,2.20
2019-04-26T00:20:34.701Z,2.00
2019-04-26T00:23:05.147Z,2.13
2019-04-26T00:25:35.677Z,1.90
2019-04-26T00:28:07.205Z,1.90
2019-04-26T00:30:38.258Z,1.90
2019-04-26T00:33:11.962Z,2.10
2019-04-26T00:35:47.682Z,2.10
2019-04-26T00:38:14.393Z,2.10
2019-04-26T00:40:45.704Z,1.83
2019-04-26T00:43:16.404Z,2.10
2019-04-26T00:45:47.224Z,2.03
2019-04-26T00:48:18.996Z,1.80
2019-04-26T00:50:51.996Z,2.20
2019-04-26T00:53:25.932Z,2.00
2019-04-26T00:55:57.644Z,2.23
2019-04-26T00:58:29.734Z,1.80
2019-04-26T01:01:02.177Z,1.72
2019-04-26T01:03:34.215Z,2.10
2019-04-26T01:06:07.103Z,1.90
2019-04-26T01:08:37.734Z,2.07
2019-04-26T01:11:08.842Z,1.93
2019-04-26T01:13:39.090Z,2.20
2019-04-26T01:16:09.214Z,2.10
2019-04-26T01:18:40.761Z,2.17
2019-04-26T01:21:12.794Z,2.00
2019-04-26T01:23:45.806Z,2.20
2019-04-26T01:26:23.182Z,2.10
2019-04-26T01:28:58.973Z,2.17
2019-04-26T01:31:31.613Z,2.00
2019-04-26T01:36:37.044Z,1.90
2019-04-26T01:37:20.506Z,2.03
2019-04-26T01:39:21.258Z,1.90
2019-04-26T01:42:08.066Z,2.10
2019-04-26T01:45:05.727Z,2.00
2019-04-26T01:47:37.055Z,2.20
2019-04-26T01:50:07.788Z,2.10
2019-04-26T01:52:39.253Z,2.03
2019-04-26T01:55:11.101Z,2.10
2019-04-26T01:57:43.173Z,1.80
2019-04-26T02:00:31.751Z,2.30
2019-04-26T02:03:06.952Z,2.00
2019-04-26T02:05:38.075Z,2.30
2019-04-26T02:08:08.623Z,2.10
2019-04-26T02:10:38.822Z,2.13
2019-04-26T02:13:09.047Z,2.20
2019-04-26T02:15:39.566Z,2.30
2019-04-26T02:18:10.118Z,2.35
2019-04-26T02:21:34.680Z,2.50
2019-04-26T02:24:39.609Z,2.07
2019-04-26T02:27:21.669Z,2.15
2019-04-26T02:29:52.691Z,2.00
2019-04-26T02:32:23.227Z,2.20
2019-04-26T02:34:53.431Z,2.00
2019-04-26T02:37:24.279Z,2.27
2019-04-26T02:39:56.943Z,2.23
2019-04-26T02:42:48.018Z,2.63
2019-04-26T02:45:58.774Z,2.10
2019-04-26T02:49:15.248Z,2.53
2019-04-26T02:52:01.732Z,2.30
2019-04-26T02:54:47.739Z,3.10
2019-04-26T02:57:24.542Z,3.90
2019-04-26T03:00:01.854Z,3.10
2019-04-26T03:02:36.140Z,2.70
2019-04-26T03:05:09.297Z,2.70
2019-04-26T03:08:09.367Z,2.60
2019-04-26T03:10:45.311Z,2.50
2019-04-26T03:13:38.063Z,3.33
2019-04-26T03:16:29.334Z,3.13
2019-04-26T03:19:18.093Z,2.63
2019-04-26T03:22:25.557Z,2.90
2019-04-26T03:25:05.190Z,3.00
2019-04-26T03:28:05.531Z,3.10
2019-04-26T03:31:00.903Z,2.90
2019-04-26T03:34:03.501Z,3.23
2019-04-26T03:37:29.736Z,3.10
2019-04-26T03:40:36.866Z,3.13
2019-04-26T03:43:49.451Z,3.37
2019-04-26T03:46:47.769Z,3.57
2019-04-26T03:49:58.036Z,4.13
2019-04-26T03:53:21.799Z,3.30
2019-04-26T03:57:13.174Z,4.27
2019-04-26T04:00:22.390Z,3.80
2019-04-26T04:03:17.561Z,3.80
2019-04-26T04:05:51.375Z,4.03
2019-04-26T04:08:26.833Z,4.10
2019-04-26T04:11:02.597Z,3.90
2019-04-26T04:13:55.533Z,3.97
2019-04-26T04:16:50.559Z,3.70
2019-04-26T04:20:19.336Z,4.40
2019-04-26T04:22:55.182Z,3.97
2019-04-26T04:25:32.546Z,3.53
2019-04-26T04:28:17.546Z,4.40
2019-04-26T04:31:12.964Z,4.60
2019-04-26T04:33:56.320Z,4.13
2019-04-26T04:36:31.550Z,3.90
2019-04-26T04:39:12.315Z,3.77
2019-04-26T04:42:12.243Z,3.70
2019-04-26T04:45:36.865Z,4.23
2019-04-26T04:48:43.296Z,4.30
2019-04-26T04:51:37.657Z,4.30
2019-04-26T04:54:18.535Z,4.27
2019-04-26T04:57:09.217Z,4.07
2019-04-26T05:00:27.982Z,4.10
2019-04-26T05:03:39.559Z,5.03
2019-04-26T05:06:31.130Z,4.67
2019-04-26T05:09:09.399Z,3.85
2019-04-26T05:11:56.395Z,3.30
2019-04-26T05:14:36.720Z,4.40
2019-04-26T05:17:56.884Z,4.80
2019-04-26T05:20:43.271Z,4.00
2019-04-26T05:23:59.954Z,4.53
2019-04-26T05:27:51.422Z,3.57
2019-04-26T05:31:12.737Z,4.20
2019-04-26T05:34:03.971Z,4.03
2019-04-26T05:36:52.744Z,3.83
2019-04-26T05:39:28.319Z,4.03
2019-04-26T05:42:48.412Z,3.73
2019-04-26T05:46:06.932Z,4.10
2019-04-26T05:49:02.129Z,3.70
2019-04-26T05:51:57.805Z,4.00
2019-04-26T05:55:03.801Z,4.20
2019-04-26T05:58:02.921Z,3.53
2019-04-26T06:01:25.317Z,3.67
2019-04-26T06:04:40.897Z,4.40
2019-04-26T06:07:31.708Z,3.90
2019-04-26T06:10:35.726Z,4.63
2019-04-26T06:14:01.956Z,4.37
2019-04-26T06:17:22.452Z,3.70
2019-04-26T06:20:23.230Z,3.30
2019-04-26T06:23:03.867Z,3.90
2019-04-26T06:26:04.655Z,3.90
2019-04-26T06:28:56.340Z,3.30
2019-04-26T06:31:36.998Z,3.70
2019-04-26T06:34:24.828Z,3.13
2019-04-26T06:37:14.678Z,3.50
2019-04-26T06:40:11.905Z,3.80
2019-04-26T06:43:16.121Z,4.00
2019-04-26T06:46:42.281Z,2.53
2019-04-26T06:49:46.850Z,3.70
2019-04-26T06:52:20.992Z,3.77
2019-04-26T06:55:22.105Z,3.50
2019-04-26T06:58:20.813Z,4.30
2019-04-26T07:01:23.074Z,3.50
2019-04-26T07:04:08.028Z,3.43
2019-04-26T07:06:45.025Z,3.60
2019-04-26T07:09:18.380Z,3.30
2019-04-26T07:12:19.768Z,3.73
2019-04-26T07:15:46.513Z,3.83
2019-04-26T07:18:55.712Z,3.17
2019-04-26T07:22:38.871Z,2.70
2019-04-26T07:25:48.843Z,3.80
2019-04-26T07:28:47.230Z,3.30
2019-04-26T07:31:41.237Z,2.60
2019-04-26T07:34:57.001Z,3.60
2019-04-26T07:38:04.736Z,3.43
2019-04-26T07:40:44.367Z,3.53
2019-04-26T07:43:44.837Z,4.00
2019-04-26T07:46:53.826Z,3.60
2019-04-26T07:49:53.412Z,3.70
2019-04-26T07:52:55.322Z,3.90
2019-04-26T07:55:40.213Z,3.93
2019-04-26T07:59:02.652Z,4.43
2019-04-26T08:02:02.524Z,3.90
2019-04-26T08:04:37.602Z,3.57
2019-04-26T08:07:13.321Z,4.30
2019-04-26T08:09:59.803Z,3.70
2019-04-26T08:12:26.720Z,5.13
2019-04-26T08:15:19.263Z,4.20
2019-04-26T08:17:58.448Z,4.73
2019-04-26T08:20:50.190Z,4.00
2019-04-26T08:23:41.428Z,3.63
2019-04-26T08:26:15.524Z,3.97
2019-04-26T08:28:48.377Z,4.30
2019-04-26T08:31:24.300Z,3.80
2019-04-26T08:34:00.931Z,3.60
2019-04-26T08:36:36.066Z,3.40
2019-04-26T08:39:15.898Z,3.73
2019-04-26T08:41:48.757Z,4.20
2019-04-26T08:44:35.611Z,3.23
2019-04-26T08:47:26.582Z,3.97
2019-04-26T08:50:17.742Z,3.60
2019-04-26T08:52:51.294Z,3.90
2019-04-26T08:55:22.571Z,3.07
2019-04-26T08:57:55.627Z,3.70
2019-04-26T09:00:40.761Z,3.13
2019-04-26T09:03:38.196Z,3.53
2019-04-26T09:06:44.383Z,3.62
2019-04-26T09:09:23.971Z,3.33
2019-04-26T09:11:59.836Z,3.43
2019-04-26T09:14:39.555Z,3.23
2019-04-26T09:17:09.967Z,3.50
2019-04-26T09:19:41.591Z,3.17
2019-04-26T09:22:30.886Z,3.10
2019-04-26T09:25:11.064Z,4.60
2019-04-26T09:28:06.241Z,3.53
2019-04-26T09:30:52.668Z,2.90
2019-04-26T09:33:38.303Z,3.13
2019-04-26T09:36:09.137Z,2.83
2019-04-26T09:38:40.764Z,3.50
2019-04-26T09:41:12.276Z,3.10
2019-04-26T09:43:55.009Z,2.80
2019-04-26T09:46:48.458Z,3.30
2019-04-26T09:49:37.374Z,3.10
2019-04-26T09:52:14.425Z,3.23
2019-04-26T09:54:44.740Z,3.50
2019-04-26T09:57:14.953Z,3.40
2019-04-26T09:59:45.040Z,3.67
2019-04-26T10:02:16.981Z,3.17
2019-04-26T10:04:47.158Z,3.90
2019-04-26T10:07:17.278Z,3.70
2019-04-26T10:09:47.697Z,3.60
2019-04-26T10:12:28.874Z,3.30
2019-04-26T10:15:12.708Z,3.50
2019-04-26T10:17:46.449Z,3.77
2019-04-26T10:20:15.080Z,3.83
2019-04-26T10:22:45.385Z,3.43
2019-04-26T10:25:16.936Z,4.17
2019-04-26T10:27:47.810Z,3.50
2019-04-26T10:30:18.443Z,4.30
2019-04-26T10:32:48.976Z,3.87
2019-04-26T10:35:21.801Z,4.77
2019-04-26T10:37:53.952Z,3.80
2019-04-26T10:40:35.067Z,4.10
2019-04-26T10:42:57.535Z,4.67
2019-04-26T10:45:28.425Z,4.70
2019-04-26T10:47:58.607Z,3.60
2019-04-26T10:50:32.925Z,4.10
2019-04-26T10:53:25.567Z,4.70
2019-04-26T10:56:23.788Z,4.07
2019-04-26T10:59:10.891Z,4.83
2019-04-26T11:01:42.214Z,5.83
2019-04-26T11:04:12.391Z,4.83
2019-04-26T11:06:42.587Z,6.20
2019-04-26T11:09:13.072Z,4.53
2019-04-26T11:11:43.274Z,4.50
2019-04-26T11:14:13.445Z,5.53
2019-04-26T11:16:43.559Z,4.70
2019-04-26T11:19:14.328Z,4.50
2019-04-26T11:21:45.611Z,5.10
2019-04-26T11:24:19.554Z,5.33
2019-04-26T11:26:47.537Z,4.80
2019-04-26T11:29:17.611Z,4.33
2019-04-26T11:31:47.733Z,4.37
2019-04-26T11:34:19.298Z,3.90
2019-04-26T11:36:50.566Z,4.17
2019-04-26T11:39:20.976Z,3.75
2019-04-26T11:41:51.289Z,4.40
2019-04-26T11:44:23.305Z,4.50
2019-04-26T11:46:53.323Z,3.40
2019-04-26T11:49:23.443Z,3.90
2019-04-26T11:51:53.603Z,3.47
2019-04-26T11:54:23.661Z,3.90
2019-04-26T11:56:53.883Z,2.83
2019-04-26T11:59:26.986Z,3.20
2019-04-26T12:01:56.289Z,2.80
2019-04-26T12:04:44.010Z,2.90
2019-04-26T12:07:26.629Z,3.10
2019-04-26T12:09:58.623Z,2.87
2019-04-26T12:12:28.789Z,3.70
2019-04-26T12:14:58.882Z,3.43
2019-04-26T12:17:31.228Z,2.60
2019-04-26T12:20:01.303Z,2.73
2019-04-26T12:22:33.233Z,3.73
2019-04-26T12:25:07.083Z,2.27
2019-04-26T12:27:35.537Z,2.40
2019-04-26T12:30:06.601Z,1.90
2019-04-26T12:32:36.900Z,2.30
2019-04-26T12:35:07.716Z,2.70
2019-04-26T12:37:37.843Z,2.50
2019-04-26T12:40:11.362Z,2.53
2019-04-26T12:42:43.342Z,2.20
2019-04-26T12:45:34.386Z,2.40
2019-04-26T12:48:08.132Z,2.40
2019-04-26T12:50:38.550Z,2.30
2019-04-26T12:53:08.608Z,2.27
2019-04-26T12:55:38.664Z,2.80
2019-04-26T12:58:11.091Z,2.70
2019-04-26T13:00:53.330Z,2.50
2019-04-26T13:03:20.251Z,2.40
2019-04-26T13:05:45.573Z,2.20
2019-04-26T13:08:16.984Z,2.30
2019-04-26T13:11:15.048Z,2.10
2019-04-26T13:13:52.144Z,1.73
2019-04-26T13:16:50.871Z,2.70
2019-04-26T13:19:21.085Z,2.40
2019-04-26T13:21:51.531Z,2.53
2019-04-26T13:24:21.699Z,2.53
2019-04-26T13:26:52.728Z,2.60
2019-04-26T13:29:23.070Z,2.10
2019-04-26T13:31:53.316Z,2.80
2019-04-26T13:34:24.775Z,2.83
2019-04-26T13:36:54.956Z,2.67
2019-04-26T13:39:25.012Z,3.30
2019-04-26T13:42:02.927Z,2.67
2019-04-26T13:44:44.882Z,2.73
2019-04-26T13:47:29.941Z,2.90
2019-04-26T13:50:13.051Z,2.67
2019-04-26T13:52:43.540Z,2.60
2019-04-26T13:55:13.851Z,2.40
2019-04-26T13:57:44.458Z,1.93
2019-04-26T14:00:23.435Z,1.73
2019-04-26T14:02:53.660Z,2.10
2019-04-26T14:05:23.845Z,2.30
2019-04-26T14:07:53.945Z,2.00
2019-04-26T14:10:24.556Z,2.40
2019-04-26T14:12:54.764Z,1.93
2019-04-26T14:15:24.918Z,1.87
2019-04-26T14:17:55.253Z,1.80
2019-04-26T14:20:26.699Z,2.10
2019-04-26T14:23:18.921Z,2.00
2019-04-26T14:26:13.924Z,2.10
2019-04-26T14:28:45.215Z,1.97
2019-04-26T14:31:18.229Z,2.17
2019-04-26T14:33:48.533Z,2.07
2019-04-26T14:36:22.644Z,1.80
2019-04-26T14:38:50.928Z,2.10
2019-04-26T14:41:22.561Z,2.03
2019-04-26T14:43:56.788Z,2.17
2019-04-26T14:46:25.286Z,2.10
2019-04-26T14:49:01.917Z,2.13
2019-04-26T14:51:27.325Z,2.07
2019-04-26T14:53:57.630Z,2.10
2019-04-26T14:56:29.222Z,2.00
2019-04-26T14:59:01.774Z,1.80
2019-04-26T15:01:59.259Z,1.73
2019-04-26T15:04:42.231Z,1.90
2019-04-26T15:07:19.622Z,1.90
2019-04-26T15:09:53.034Z,1.90
2019-04-26T15:12:25.154Z,1.50
2019-04-26T15:15:08.820Z,1.93
2019-04-26T15:17:38.607Z,1.80
2019-04-26T15:20:09.271Z,1.65
2019-04-26T15:22:42.861Z,1.93
2019-04-26T15:25:14.148Z,1.80
2019-04-26T15:27:44.373Z,1.80
2019-04-26T15:30:14.469Z,1.97
2019-04-26T15:32:52.928Z,1.70
2019-04-26T15:35:32.634Z,2.10
2019-04-26T15:38:09.611Z,1.90
2019-04-26T15:41:05.409Z,1.77
2019-04-26T15:43:51.882Z,1.97
2019-04-26T15:46:42.641Z,2.10
2019-04-26T15:49:34.070Z,2.10
2019-04-26T15:52:02.765Z,1.80
2019-04-26T15:54:33.241Z,2.30
2019-04-26T15:57:06.512Z,2.20
2019-04-26T15:59:36.561Z,1.70
2019-04-26T16:02:06.818Z,2.10
2019-04-26T16:04:37.214Z,2.97
2019-04-26T16:07:10.065Z,2.40
2019-04-26T16:09:43.693Z,2.43
2019-04-26T16:12:14.401Z,2.47
2019-04-26T16:14:53.849Z,2.00
2019-04-26T16:17:24.157Z,2.07
2019-04-26T16:19:56.187Z,2.00
2019-04-26T16:22:30.161Z,2.00
2019-04-26T16:25:01.796Z,2.03
2019-04-26T16:27:32.407Z,2.00
2019-04-26T16:30:28.499Z,2.37
2019-04-26T16:33:06.755Z,2.00
2019-04-26T16:35:37.305Z,1.80
2019-04-26T16:38:25.287Z,1.87
2019-04-26T16:40:55.571Z,1.90
2019-04-26T16:43:37.007Z,3.17
2019-04-26T16:45:57.605Z,2.30
2019-04-26T16:48:27.877Z,2.03
2019-04-26T16:51:01.203Z,2.00
2019-04-26T16:53:43.875Z,1.87
2019-04-26T16:56:13.047Z,2.30
2019-04-26T16:58:45.314Z,2.27
2019-04-26T17:01:15.562Z,2.05
2019-04-26T17:03:48.639Z,2.37
2019-04-26T17:06:18.935Z,2.20
2019-04-26T17:08:57.519Z,2.10
2019-04-26T17:11:23.029Z,2.20
2019-04-26T17:13:56.748Z,2.23
2019-04-26T17:16:25.753Z,2.23
2019-04-26T17:18:59.535Z,2.40
2019-04-26T17:21:34.499Z,2.33
2019-04-26T17:24:33.313Z,2.42
2019-04-26T17:27:09.711Z,2.33
2019-04-26T17:29:40.162Z,2.30
2019-04-26T17:32:15.540Z,2.27
2019-04-26T17:34:43.364Z,2.30
2019-04-26T17:37:37.957Z,2.23
2019-04-26T17:40:08.839Z,2.17
2019-04-26T17:42:40.705Z,2.30
2019-04-26T17:45:11.482Z,2.30
2019-04-26T17:47:42.401Z,2.47
2019-04-26T17:50:14.220Z,2.10
2019-04-26T17:52:44.545Z,2.13
2019-04-26T17:55:16.184Z,2.30
2019-04-26T17:57:49.982Z,2.40
2019-04-26T18:00:27.053Z,2.27
2019-04-26T18:03:01.268Z,2.33
2019-04-26T18:05:41.892Z,2.20
2019-04-26T18:08:31.296Z,2.27
2019-04-26T18:10:41.409Z,2.07
2019-04-26T18:13:11.279Z,2.17
2019-04-26T18:15:46.951Z,2.13
2019-04-26T18:18:30.033Z,2.53
2019-04-26T18:21:20.390Z,2.50
2019-04-26T18:23:54.619Z,2.20
2019-04-26T18:26:24.552Z,2.07
2019-04-26T18:28:55.336Z,2.57
2019-04-26T18:31:33.580Z,2.90
2019-04-26T18:34:01.833Z,3.10
2019-04-26T18:36:33.450Z,3.43
2019-04-26T18:39:06.600Z,2.87
2019-04-26T18:41:37.182Z,3.17
2019-04-26T18:44:07.459Z,3.00
2019-04-26T18:47:02.862Z,2.63
2019-04-26T18:49:33.054Z,3.03
2019-04-26T18:52:03.751Z,2.97
2019-04-26T18:54:40.176Z,4.13
2019-04-26T18:57:15.679Z,3.03
2019-04-26T18:59:44.804Z,2.70
2019-04-26T19:02:18.839Z,3.00
2019-04-26T19:04:49.610Z,3.00
2019-04-26T19:07:31.522Z,3.03
2019-04-26T19:10:02.959Z,2.67
2019-04-26T19:12:26.971Z,2.77
2019-04-26T19:15:13.110Z,3.03
2019-04-26T19:17:49.037Z,2.60
2019-04-26T19:20:50.513Z,2.97
2019-04-26T19:23:22.798Z,3.00
2019-04-26T19:25:52.989Z,4.10
2019-04-26T19:28:23.192Z,5.13
2019-04-26T19:30:53.663Z,2.60
2019-04-26T19:33:24.039Z,6.17
2019-04-26T19:35:54.310Z,4.10
2019-04-26T19:38:24.488Z,6.17
2019-04-26T19:40:54.670Z,5.10
2019-04-26T19:43:31.155Z,2.50
2019-04-26T19:46:06.055Z,2.70
2019-04-26T19:48:56.559Z,2.70
2019-04-26T19:51:43.773Z,4.10
2019-04-26T19:54:27.516Z,4.47
2019-04-26T19:57:02.600Z,6.10
2019-04-26T19:59:34.482Z,12.30
2019-04-26T20:02:05.965Z,13.80
2019-04-26T20:04:37.578Z,7.20
2019-04-26T20:07:17.638Z,7.87
2019-04-26T20:09:48.125Z,5.77
2019-04-26T20:12:18.283Z,9.00
2019-04-26T20:14:51.338Z,4.43
2019-04-26T20:17:23.448Z,3.90
2019-04-26T20:19:55.363Z,4.73
2019-04-26T20:22:28.657Z,4.10
2019-04-26T20:24:58.194Z,4.30
2019-04-26T20:27:28.358Z,4.03
2019-04-26T20:29:58.566Z,6.50
2019-04-26T20:32:35.171Z,4.67
2019-04-26T20:35:26.537Z,5.90
2019-04-26T20:37:56.209Z,6.10
2019-04-26T20:40:25.855Z,3.57
2019-04-26T20:43:02.072Z,4.40
2019-04-26T20:45:39.768Z,3.00
2019-04-26T20:48:02.365Z,3.00
2019-04-26T20:50:36.870Z,3.40
2019-04-26T20:53:07.464Z,2.63
2019-04-26T20:55:37.636Z,2.80
2019-04-26T20:58:08.728Z,4.40
2019-04-26T21:00:39.532Z,2.70
2019-04-26T21:03:21.078Z,2.70
2019-04-26T21:05:46.377Z,2.50
2019-04-26T21:08:13.567Z,2.80
2019-04-26T21:10:43.715Z,2.20
2019-04-26T21:13:13.880Z,2.83
2019-04-26T21:15:56.064Z,2.40
2019-04-26T21:18:15.774Z,2.63
2019-04-26T21:20:47.386Z,2.97
2019-04-26T21:23:17.487Z,2.60
2019-04-26T21:25:53.632Z,2.63
2019-04-26T21:28:43.931Z,2.60
2019-04-26T21:31:36.147Z,2.27
2019-04-26T21:34:14.371Z,2.67
2019-04-26T21:37:05.401Z,2.70
2019-04-26T21:39:47.634Z,2.60
2019-04-26T21:42:21.051Z,2.93
2019-04-26T21:44:52.455Z,2.20
2019-04-26T21:47:23.186Z,2.30
2019-04-26T21:49:58.805Z,2.20
2019-04-26T21:52:29.128Z,2.27
2019-04-26T21:54:57.454Z,2.20
2019-04-26T21:57:28.351Z,2.40
2019-04-26T21:59:58.681Z,2.30
2019-04-26T22:02:29.554Z,2.60
2019-04-26T22:05:00.893Z,2.57
2019-04-26T22:07:32.814Z,2.40
2019-04-26T22:10:14.717Z,2.70
2019-04-26T22:38:29.077Z,3.30
2019-04-26T22:41:03.046Z,2.50
2019-04-26T22:43:41.388Z,2.67
2019-04-26T22:46:30.084Z,3.27
2019-04-26T22:49:05.711Z,2.40
2019-04-26T22:51:37.389Z,2.90
2019-04-26T22:54:07.904Z,2.90
2019-04-26T22:56:38.457Z,3.00
2019-04-26T22:59:08.975Z,3.33
2019-04-26T23:01:44.674Z,2.57
2019-04-26T23:04:16.380Z,3.53
2019-04-26T23:06:46.939Z,3.50
2019-04-26T23:09:17.470Z,3.23
2019-04-26T23:12:27.692Z,3.30
2019-04-26T23:15:31.711Z,3.37
2019-04-26T23:18:30.329Z,2.73
2019-04-26T23:21:07.692Z,2.80
2019-04-26T23:23:37.194Z,2.27
2019-04-26T23:26:08.147Z,2.97
2019-04-26T23:28:38.338Z,2.63
2019-04-26T23:31:09.235Z,2.30
2019-04-26T23:33:44.034Z,2.33
2019-04-26T23:36:18.292Z,2.07
2019-04-26T23:38:46.005Z,2.53
2019-04-26T23:41:16.153Z,1.83
2019-04-26T23:43:46.285Z,2.20
2019-04-26T23:46:18.895Z,2.70
2019-04-26T23:48:49.700Z,2.50
2019-04-26T23:51:20.066Z,2.20
2019-04-26T23:53:50.618Z,2.13
2019-04-26T23:56:25.341Z,2.77
2019-04-26T23:58:54.424Z,2.40
